Terminal Aerodrome Forecast
Issued by NWS

Home | Current Version | Previous Version | Graphics & Text | Print | Product List | Glossary On
Versions: 1 2 3 4 5 6 7 8 9 10 11 12 13 14 15
000
FTUS43 KBIS 192300
TAFMOT
TAF
KMOT 192330Z 2000/2024 30006KT P6SM SKC
     FM200700 24004KT P6SM FEW240
     FM201200 18005KT P6SM SKC
     FM201800 16009KT P6SM SKC=

USA.gov is the U.S. government's official web portal to all federal, state and local government web resources and services.